Bagni di Tivol, Italy

8:11 PM CEST on September 20, 2017 (GMT +0200)
Colosseo | | Change Station

Elev 164 ft 41.90 °N, 12.48 °E | Updated 3 seconds ago

Clear
Clear
66.6 °F
Feels Like 66.6 °F
N
0.0
Wind Variable Wind from NW
Gusts 0.0 mph

Today
High -- | Low -- °F
--% Chance of Precip.
Yesterday
High -- | Low -- °F
Precip. -- in
Pressure 29.98 in
Visibility -9999.0 miles
Clouds
Dew Point 48 °F
Humidity 51%
Rainfall 0.00 in
Snow Depth Not available.
6:55 AM 7:10 PM
New Moon, 0% visible
METAR LIRG 201755Z 33009KT CAVOK 17/06 Q1015 RMK SKC MON NE LIB NC VIS MIN 9999 BLU
Pressure 29.98 in
Visibility -9999.0 miles
Clouds
Dew Point 48 °F
Humidity 51%
Rainfall 0.00 in
Snow Depth Not available.
6:55 AM 7:10 PM
New Moon, 0% visible
METAR LIRG 201755Z 33009KT CAVOK 17/06 Q1015 RMK SKC MON NE LIB NC VIS MIN 9999 BLU

Get Severe Weather Alerts

Thanks for signing up!

Be on the lookout for a verification email in your inbox.

You'll start receiving the daily forecast at 6 AM.

×

10-Day Weather Forecast

×

Almanac

Astronomy

Sep. 20, 2017 Rise Set
Actual Time
Civil Twilight
Nautical Twilight
Astronomical Twilight
Moon
Length of Visible Light
Length of Day
Tomorrow will be .
, % of the Moon is Illuminated

Today's Extremes

Country Highs Country Lows

Community

WunderPhotos

Category 6

Welcome to Category 6. This is the collective home for Weather Underground's featured writeups by Dr. Jeff Masters (right), Bob Henson (left), Chris Burt, and other regular contributors.

Nearby

Air Quality

  Air Quality AQ Index Pollutant
Not available.

Snow Depth

Station Depth Elevation

Earthquake Activity

City Distance Mag. Time & Date
Minimum magnitude displayed is 2.5.

Coastal Water Temperatures

Place Temperature

Stations

Nearby Weather Stations

Station Location Temp. Windchill Dew Point Humidity Wind Precip. Elev Updated Type